航空気象通報

ウインドサーファーのための航空気象通報による風予報です。

8/9-8/11の航空気象通報

2017年08月09日 22時23分21秒 | TAF
羽田空港
TAF RJTT 091109Z 0912/1018 08007KT 9999 FEW008 BKN015
TEMPO 0914/0922 FEW005 BKN008
TEMPO 1009/1018 FEW005 BKN008
日本時間9日21時-11日03時:080度から7ノットの風


静岡空港
TAF RJNS 091105Z 0912/1018 27008KT 9999 FEW030
日本時間9日21時-11日03時:270度から8ノットの風


福岡空港
TAF RJFF 091108Z 0912/1018 16007KT 9999 FEW020 SCT030
BECMG 1000/1003 31010KT
BECMG 1012/1015 15003KT
日本時間9日21時-10日09時:160度から7ノットの風
09-12時:風が変化
12-21時:310度から10ノットの風
21-24時:風が変化
11日00-03時:150度から3ノットの風


那覇空港
TAF ROAH 091105Z 0912/1018 23010KT 9999 FEW015
日本時間9日21時-11日03時:230度から10ノットの風


石垣空港
TAF ROIG 091108Z 0912/1018 20012KT 9999 FEW015 SCT025
日本時間9日21時-11日03時:200度から12ノットの風


マウイのカフルイ空港
PHOG 091120Z 0912/1012 04008KT P6SM VCSH FEW025 SCT050
FM092000 04020G28KT P6SM FEW030 SCT050
FM100500 05012G20KT P6SM FEW030 SCT050 AMD LTD TO VIS AND WIND TIL 091600
ハワイ時間9日02-10時:040度から8ノットの風
10-19時:040度から20ノット、突風28ノット
19時-10日02時:050度から12ノット、突風20ノット


サイパン空港
TAF PGSN 091130Z 0912/1012 17005KT P6SM VCSH SCT022 SCT130
マリアナ時間9日22時-10日22時:170度から5ノットの風

ジャンル:
お天気
コメント   この記事についてブログを書く
この記事をはてなブックマークに追加
« 8/8-8/10の航空気象通報 | トップ | 8/11-8/13の航空気象通報 »
最近の画像もっと見る

コメントを投稿

ブログ作成者から承認されるまでコメントは反映されません。

TAF」カテゴリの最新記事